sensor_id;sensor_type;location;lat;lon;timestamp;P1;durP1;ratioP1;P2;durP2;ratioP2
45318;SDS011;31057;48.498;32.260;2023-05-16T00:01:14;11.90;;;6.53;;
45318;SDS011;31057;48.498;32.260;2023-05-16T00:05:19;8.10;;;6.47;;
45318;SDS011;31057;48.498;32.260;2023-05-16T00:07:21;10.70;;;5.50;;
45318;SDS011;31057;48.498;32.260;2023-05-16T00:09:23;9.05;;;6.30;;
45318;SDS011;31057;48.498;32.260;2023-05-16T00:11:25;9.25;;;6.00;;
45318;SDS011;31057;48.498;32.260;2023-05-16T00:15:30;9.63;;;6.25;;
45318;SDS011;31057;48.498;32.260;2023-05-16T00:17:31;11.45;;;6.68;;
45318;SDS011;31057;48.498;32.260;2023-05-16T00:19:33;9.55;;;6.30;;
45318;SDS011;31057;48.498;32.260;2023-05-16T00:21:35;8.05;;;6.53;;
45318;SDS011;31057;48.498;32.260;2023-05-16T00:23:37;11.18;;;7.93;;
45318;SDS011;31057;48.498;32.260;2023-05-16T00:27:41;8.82;;;5.97;;
45318;SDS011;31057;48.498;32.260;2023-05-16T00:29:43;9.80;;;6.63;;
45318;SDS011;31057;48.498;32.260;2023-05-16T00:31:45;8.30;;;6.25;;
45318;SDS011;31057;48.498;32.260;2023-05-16T00:35:49;10.90;;;6.53;;
45318;SDS011;31057;48.498;32.260;2023-05-16T00:37:51;9.00;;;6.40;;
45318;SDS011;31057;48.498;32.260;2023-05-16T00:41:54;7.03;;;6.00;;
45318;SDS011;31057;48.498;32.260;2023-05-16T00:43:57;11.05;;;6.85;;
45318;SDS011;31057;48.498;32.260;2023-05-16T00:45:59;10.32;;;6.97;;
45318;SDS011;31057;48.498;32.260;2023-05-16T00:48:02;9.70;;;7.50;;
45318;SDS011;31057;48.498;32.260;2023-05-16T00:50:04;8.20;;;6.72;;
45318;SDS011;31057;48.498;32.260;2023-05-16T00:52:07;9.40;;;7.63;;
45318;SDS011;31057;48.498;32.260;2023-05-16T00:56:11;10.90;;;6.35;;
45318;SDS011;31057;48.498;32.260;2023-05-16T00:58:13;10.00;;;7.30;;
45318;SDS011;31057;48.498;32.260;2023-05-16T01:00:16;9.82;;;6.65;;
45318;SDS011;31057;48.498;32.260;2023-05-16T01:02:20;8.68;;;7.30;;
45318;SDS011;31057;48.498;32.260;2023-05-16T01:04:22;8.75;;;7.53;;
45318;SDS011;31057;48.498;32.260;2023-05-16T01:06:26;9.88;;;7.22;;
45318;SDS011;31057;48.498;32.260;2023-05-16T01:10:38;9.63;;;6.43;;
45318;SDS011;31057;48.498;32.260;2023-05-16T01:12:51;11.40;;;7.63;;
45318;SDS011;31057;48.498;32.260;2023-05-16T01:15:21;13.48;;;8.07;;
45318;SDS011;31057;48.498;32.260;2023-05-16T01:22:45;14.77;;;8.32;;
45318;SDS011;31057;48.498;32.260;2023-05-16T01:27:02;10.65;;;7.18;;
45318;SDS011;31057;48.498;32.260;2023-05-16T01:29:06;11.25;;;7.93;;
45318;SDS011;31057;48.498;32.260;2023-05-16T01:31:08;10.30;;;8.15;;
45318;SDS011;31057;48.498;32.260;2023-05-16T01:33:10;9.90;;;7.78;;
45318;SDS011;31057;48.498;32.260;2023-05-16T01:37:17;10.38;;;8.13;;
45318;SDS011;31057;48.498;32.260;2023-05-16T01:39:36;8.65;;;7.10;;
45318;SDS011;31057;48.498;32.260;2023-05-16T01:42:05;11.27;;;7.60;;
45318;SDS011;31057;48.498;32.260;2023-05-16T01:44:18;10.40;;;7.57;;
45318;SDS011;31057;48.498;32.260;2023-05-16T01:46:30;16.70;;;8.68;;
45318;SDS011;31057;48.498;32.260;2023-05-16T01:48:38;10.80;;;8.00;;
45318;SDS011;31057;48.498;32.260;2023-05-16T01:51:04;12.27;;;7.63;;
45318;SDS011;31057;48.498;32.260;2023-05-16T01:53:07;11.38;;;6.97;;
45318;SDS011;31057;48.498;32.260;2023-05-16T01:55:28;11.80;;;7.40;;
45318;SDS011;31057;48.498;32.260;2023-05-16T01:57:36;10.98;;;8.88;;
45318;SDS011;31057;48.498;32.260;2023-05-16T01:59:40;13.10;;;6.80;;
45318;SDS011;31057;48.498;32.260;2023-05-16T02:01:44;13.02;;;6.55;;
45318;SDS011;31057;48.498;32.260;2023-05-16T02:05:48;14.50;;;6.87;;
45318;SDS011;31057;48.498;32.260;2023-05-16T02:07:50;10.25;;;7.03;;
45318;SDS011;31057;48.498;32.260;2023-05-16T02:09:52;11.63;;;7.40;;
45318;SDS011;31057;48.498;32.260;2023-05-16T02:11:54;9.43;;;6.55;;
45318;SDS011;31057;48.498;32.260;2023-05-16T02:13:56;10.15;;;6.03;;
45318;SDS011;31057;48.498;32.260;2023-05-16T02:18:00;17.27;;;7.50;;
45318;SDS011;31057;48.498;32.260;2023-05-16T02:20:02;11.18;;;6.78;;
45318;SDS011;31057;48.498;32.260;2023-05-16T02:22:07;10.57;;;6.72;;
45318;SDS011;31057;48.498;32.260;2023-05-16T02:26:11;8.77;;;6.60;;
45318;SDS011;31057;48.498;32.260;2023-05-16T02:28:13;15.30;;;7.75;;
45318;SDS011;31057;48.498;32.260;2023-05-16T02:30:15;14.68;;;8.93;;
45318;SDS011;31057;48.498;32.260;2023-05-16T02:32:17;13.15;;;9.32;;
45318;SDS011;31057;48.498;32.260;2023-05-16T02:36:20;14.00;;;8.30;;
45318;SDS011;31057;48.498;32.260;2023-05-16T02:38:22;14.10;;;8.15;;
45318;SDS011;31057;48.498;32.260;2023-05-16T02:40:24;15.50;;;8.05;;
45318;SDS011;31057;48.498;32.260;2023-05-16T02:42:26;11.75;;;6.45;;
45318;SDS011;31057;48.498;32.260;2023-05-16T02:44:29;9.55;;;7.43;;
45318;SDS011;31057;48.498;32.260;2023-05-16T02:46:32;8.40;;;6.72;;
45318;SDS011;31057;48.498;32.260;2023-05-16T02:48:35;12.48;;;7.60;;
45318;SDS011;31057;48.498;32.260;2023-05-16T02:50:37;9.65;;;7.38;;
45318;SDS011;31057;48.498;32.260;2023-05-16T02:52:40;10.55;;;6.90;;
45318;SDS011;31057;48.498;32.260;2023-05-16T02:54:42;11.23;;;6.88;;
45318;SDS011;31057;48.498;32.260;2023-05-16T02:56:48;18.85;;;9.70;;
45318;SDS011;31057;48.498;32.260;2023-05-16T02:58:52;10.35;;;6.65;;
45318;SDS011;31057;48.498;32.260;2023-05-16T03:00:54;11.13;;;6.72;;
45318;SDS011;31057;48.498;32.260;2023-05-16T03:02:56;9.98;;;5.97;;
45318;SDS011;31057;48.498;32.260;2023-05-16T03:07:00;17.08;;;6.20;;
45318;SDS011;31057;48.498;32.260;2023-05-16T03:09:02;7.55;;;6.75;;
45318;SDS011;31057;48.498;32.260;2023-05-16T03:11:04;8.98;;;6.03;;
45318;SDS011;31057;48.498;32.260;2023-05-16T03:13:06;8.30;;;6.20;;
45318;SDS011;31057;48.498;32.260;2023-05-16T03:15:08;12.30;;;6.50;;
45318;SDS011;31057;48.498;32.260;2023-05-16T03:17:10;15.15;;;6.53;;
45318;SDS011;31057;48.498;32.260;2023-05-16T03:19:12;11.60;;;6.30;;
45318;SDS011;31057;48.498;32.260;2023-05-16T03:21:14;12.43;;;5.45;;
45318;SDS011;31057;48.498;32.260;2023-05-16T03:23:16;9.85;;;6.60;;
45318;SDS011;31057;48.498;32.260;2023-05-16T03:27:21;11.90;;;6.80;;
45318;SDS011;31057;48.498;32.260;2023-05-16T03:29:23;16.13;;;6.57;;
45318;SDS011;31057;48.498;32.260;2023-05-16T03:31:26;17.45;;;6.80;;
45318;SDS011;31057;48.498;32.260;2023-05-16T03:33:28;14.98;;;6.90;;
45318;SDS011;31057;48.498;32.260;2023-05-16T03:35:30;11.38;;;8.23;;
45318;SDS011;31057;48.498;32.260;2023-05-16T03:37:33;17.27;;;6.35;;
45318;SDS011;31057;48.498;32.260;2023-05-16T03:39:35;13.27;;;6.70;;
45318;SDS011;31057;48.498;32.260;2023-05-16T03:43:38;11.60;;;6.50;;
45318;SDS011;31057;48.498;32.260;2023-05-16T03:47:43;8.95;;;6.22;;
45318;SDS011;31057;48.498;32.260;2023-05-16T03:49:45;8.88;;;6.07;;
45318;SDS011;31057;48.498;32.260;2023-05-16T03:51:47;10.38;;;5.82;;
45318;SDS011;31057;48.498;32.260;2023-05-16T03:53:49;11.27;;;5.47;;
45318;SDS011;31057;48.498;32.260;2023-05-16T03:55:51;9.45;;;5.95;;
45318;SDS011;31057;48.498;32.260;2023-05-16T03:57:53;9.18;;;5.47;;
45318;SDS011;31057;48.498;32.260;2023-05-16T03:59:55;8.63;;;5.45;;
45318;SDS011;31057;48.498;32.260;2023-05-16T04:01:56;9.40;;;6.25;;
45318;SDS011;31057;48.498;32.260;2023-05-16T04:03:58;12.48;;;5.80;;
45318;SDS011;31057;48.498;32.260;2023-05-16T04:06:00;9.43;;;5.18;;
45318;SDS011;31057;48.498;32.260;2023-05-16T04:08:02;11.85;;;5.68;;
45318;SDS011;31057;48.498;32.260;2023-05-16T04:10:04;7.30;;;5.55;;
45318;SDS011;31057;48.498;32.260;2023-05-16T04:12:07;8.35;;;5.43;;
45318;SDS011;31057;48.498;32.260;2023-05-16T04:14:09;14.50;;;5.88;;
45318;SDS011;31057;48.498;32.260;2023-05-16T04:16:11;8.70;;;5.57;;
45318;SDS011;31057;48.498;32.260;2023-05-16T04:18:13;9.50;;;5.10;;
45318;SDS011;31057;48.498;32.260;2023-05-16T04:20:15;9.63;;;5.53;;
45318;SDS011;31057;48.498;32.260;2023-05-16T04:24:18;16.43;;;5.60;;
45318;SDS011;31057;48.498;32.260;2023-05-16T04:26:20;15.75;;;6.15;;
45318;SDS011;31057;48.498;32.260;2023-05-16T04:28:23;19.80;;;5.45;;
45318;SDS011;31057;48.498;32.260;2023-05-16T04:30:25;26.75;;;6.57;;
45318;SDS011;31057;48.498;32.260;2023-05-16T04:32:27;16.27;;;5.78;;
45318;SDS011;31057;48.498;32.260;2023-05-16T04:36:31;13.82;;;5.53;;
45318;SDS011;31057;48.498;32.260;2023-05-16T04:38:35;11.98;;;5.57;;
45318;SDS011;31057;48.498;32.260;2023-05-16T04:40:38;14.18;;;5.30;;
45318;SDS011;31057;48.498;32.260;2023-05-16T04:42:41;10.90;;;4.43;;
45318;SDS011;31057;48.498;32.260;2023-05-16T04:44:43;22.67;;;6.00;;
45318;SDS011;31057;48.498;32.260;2023-05-16T04:46:48;9.85;;;5.72;;
45318;SDS011;31057;48.498;32.260;2023-05-16T04:48:50;26.88;;;6.32;;
45318;SDS011;31057;48.498;32.260;2023-05-16T04:52:54;18.75;;;5.40;;
45318;SDS011;31057;48.498;32.260;2023-05-16T04:54:56;18.33;;;5.10;;
45318;SDS011;31057;48.498;32.260;2023-05-16T04:57:00;18.20;;;6.05;;
45318;SDS011;31057;48.498;32.260;2023-05-16T04:59:02;26.50;;;5.82;;
45318;SDS011;31057;48.498;32.260;2023-05-16T05:01:04;22.00;;;7.03;;
45318;SDS011;31057;48.498;32.260;2023-05-16T05:03:06;12.18;;;5.38;;
45318;SDS011;31057;48.498;32.260;2023-05-16T05:05:09;21.90;;;5.35;;
45318;SDS011;31057;48.498;32.260;2023-05-16T05:07:11;13.32;;;6.25;;
45318;SDS011;31057;48.498;32.260;2023-05-16T05:09:14;12.95;;;5.80;;
45318;SDS011;31057;48.498;32.260;2023-05-16T05:11:16;17.90;;;5.85;;
45318;SDS011;31057;48.498;32.260;2023-05-16T05:13:18;9.88;;;5.35;;
45318;SDS011;31057;48.498;32.260;2023-05-16T05:15:20;14.10;;;5.25;;
45318;SDS011;31057;48.498;32.260;2023-05-16T05:17:24;14.52;;;5.55;;
45318;SDS011;31057;48.498;32.260;2023-05-16T05:21:28;15.35;;;5.30;;
45318;SDS011;31057;48.498;32.260;2023-05-16T05:23:31;13.77;;;4.63;;
45318;SDS011;31057;48.498;32.260;2023-05-16T05:25:35;11.55;;;5.63;;
45318;SDS011;31057;48.498;32.260;2023-05-16T05:27:38;12.35;;;5.03;;
45318;SDS011;31057;48.498;32.260;2023-05-16T05:29:40;16.55;;;8.25;;
45318;SDS011;31057;48.498;32.260;2023-05-16T05:33:43;22.05;;;9.52;;
45318;SDS011;31057;48.498;32.260;2023-05-16T05:35:46;15.50;;;6.00;;
45318;SDS011;31057;48.498;32.260;2023-05-16T05:37:48;19.05;;;5.80;;
45318;SDS011;31057;48.498;32.260;2023-05-16T05:39:49;11.70;;;5.47;;
45318;SDS011;31057;48.498;32.260;2023-05-16T05:41:51;14.27;;;6.43;;
45318;SDS011;31057;48.498;32.260;2023-05-16T05:43:53;18.50;;;6.53;;
45318;SDS011;31057;48.498;32.260;2023-05-16T05:47:57;26.90;;;7.13;;
45318;SDS011;31057;48.498;32.260;2023-05-16T05:50:13;15.57;;;5.57;;
45318;SDS011;31057;48.498;32.260;2023-05-16T05:52:17;15.15;;;6.28;;
45318;SDS011;31057;48.498;32.260;2023-05-16T05:54:19;14.73;;;5.32;;
45318;SDS011;31057;48.498;32.260;2023-05-16T05:56:21;17.33;;;5.80;;
45318;SDS011;31057;48.498;32.260;2023-05-16T05:58:24;17.00;;;6.13;;
45318;SDS011;31057;48.498;32.260;2023-05-16T06:02:29;15.40;;;6.10;;
45318;SDS011;31057;48.498;32.260;2023-05-16T06:04:31;22.95;;;6.28;;
45318;SDS011;31057;48.498;32.260;2023-05-16T06:06:33;14.43;;;5.32;;
45318;SDS011;31057;48.498;32.260;2023-05-16T06:10:37;22.30;;;6.28;;
45318;SDS011;31057;48.498;32.260;2023-05-16T06:14:41;8.43;;;5.30;;
45318;SDS011;31057;48.498;32.260;2023-05-16T06:16:43;15.82;;;5.10;;
45318;SDS011;31057;48.498;32.260;2023-05-16T06:20:47;15.43;;;6.50;;
45318;SDS011;31057;48.498;32.260;2023-05-16T06:24:50;16.02;;;5.72;;
45318;SDS011;31057;48.498;32.260;2023-05-16T06:26:52;16.67;;;5.30;;
45318;SDS011;31057;48.498;32.260;2023-05-16T06:28:54;12.57;;;5.07;;
45318;SDS011;31057;48.498;32.260;2023-05-16T06:30:56;15.32;;;5.22;;
45318;SDS011;31057;48.498;32.260;2023-05-16T06:35:00;25.17;;;7.60;;
45318;SDS011;31057;48.498;32.260;2023-05-16T06:37:02;31.63;;;7.40;;
45318;SDS011;31057;48.498;32.260;2023-05-16T06:39:04;32.95;;;7.93;;
45318;SDS011;31057;48.498;32.260;2023-05-16T06:41:06;21.08;;;5.70;;
45318;SDS011;31057;48.498;32.260;2023-05-16T06:43:08;14.10;;;7.03;;
45318;SDS011;31057;48.498;32.260;2023-05-16T06:45:10;18.17;;;6.22;;
45318;SDS011;31057;48.498;32.260;2023-05-16T06:47:12;30.40;;;7.60;;
45318;SDS011;31057;48.498;32.260;2023-05-16T06:49:14;12.65;;;5.10;;
45318;SDS011;31057;48.498;32.260;2023-05-16T06:51:16;14.32;;;6.13;;
45318;SDS011;31057;48.498;32.260;2023-05-16T06:53:18;14.13;;;5.85;;
45318;SDS011;31057;48.498;32.260;2023-05-16T06:55:20;12.25;;;5.10;;
45318;SDS011;31057;48.498;32.260;2023-05-16T06:59:24;12.75;;;5.47;;
45318;SDS011;31057;48.498;32.260;2023-05-16T07:01:28;8.10;;;4.82;;
45318;SDS011;31057;48.498;32.260;2023-05-16T07:03:30;11.18;;;5.13;;
45318;SDS011;31057;48.498;32.260;2023-05-16T07:05:32;9.52;;;5.50;;
45318;SDS011;31057;48.498;32.260;2023-05-16T07:07:34;9.98;;;5.45;;
45318;SDS011;31057;48.498;32.260;2023-05-16T07:09:36;14.10;;;5.60;;
45318;SDS011;31057;48.498;32.260;2023-05-16T07:13:40;17.63;;;5.53;;
45318;SDS011;31057;48.498;32.260;2023-05-16T07:15:42;12.93;;;5.38;;
45318;SDS011;31057;48.498;32.260;2023-05-16T07:19:46;9.43;;;5.57;;
45318;SDS011;31057;48.498;32.260;2023-05-16T07:23:50;12.88;;;6.05;;
45318;SDS011;31057;48.498;32.260;2023-05-16T07:27:54;9.88;;;5.53;;
45318;SDS011;31057;48.498;32.260;2023-05-16T07:29:56;11.57;;;5.38;;
45318;SDS011;31057;48.498;32.260;2023-05-16T07:34:00;10.32;;;5.28;;
45318;SDS011;31057;48.498;32.260;2023-05-16T07:38:17;15.73;;;5.20;;
45318;SDS011;31057;48.498;32.260;2023-05-16T07:42:28;14.73;;;5.38;;
45318;SDS011;31057;48.498;32.260;2023-05-16T07:44:31;10.48;;;4.95;;
45318;SDS011;31057;48.498;32.260;2023-05-16T07:46:33;12.82;;;5.90;;
45318;SDS011;31057;48.498;32.260;2023-05-16T07:48:35;8.95;;;5.43;;
45318;SDS011;31057;48.498;32.260;2023-05-16T07:50:37;10.25;;;6.07;;
45318;SDS011;31057;48.498;32.260;2023-05-16T07:52:39;15.50;;;5.45;;
45318;SDS011;31057;48.498;32.260;2023-05-16T07:56:43;9.48;;;6.00;;
45318;SDS011;31057;48.498;32.260;2023-05-16T08:00:49;10.27;;;5.15;;
45318;SDS011;31057;48.498;32.260;2023-05-16T08:02:51;19.45;;;7.47;;
45318;SDS011;31057;48.498;32.260;2023-05-16T08:04:53;16.90;;;6.07;;
45318;SDS011;31057;48.498;32.260;2023-05-16T08:06:55;10.70;;;6.05;;
45318;SDS011;31057;48.498;32.260;2023-05-16T08:08:57;15.23;;;6.60;;
45318;SDS011;31057;48.498;32.260;2023-05-16T08:10:59;12.90;;;6.38;;
45318;SDS011;31057;48.498;32.260;2023-05-16T08:15:04;15.05;;;7.90;;
45318;SDS011;31057;48.498;32.260;2023-05-16T08:17:07;14.07;;;7.35;;
45318;SDS011;31057;48.498;32.260;2023-05-16T08:19:08;12.15;;;4.72;;
45318;SDS011;31057;48.498;32.260;2023-05-16T08:21:11;13.27;;;4.72;;
45318;SDS011;31057;48.498;32.260;2023-05-16T08:23:14;15.18;;;5.57;;
45318;SDS011;31057;48.498;32.260;2023-05-16T08:25:16;13.93;;;6.07;;
45318;SDS011;31057;48.498;32.260;2023-05-16T08:27:21;19.70;;;5.68;;
45318;SDS011;31057;48.498;32.260;2023-05-16T08:29:22;50.72;;;7.75;;
45318;SDS011;31057;48.498;32.260;2023-05-16T08:33:26;13.93;;;3.10;;
45318;SDS011;31057;48.498;32.260;2023-05-16T08:39:34;5.40;;;2.75;;
45318;SDS011;31057;48.498;32.260;2023-05-16T08:45:40;11.32;;;2.83;;
45318;SDS011;31057;48.498;32.260;2023-05-16T08:47:43;12.45;;;3.15;;
45318;SDS011;31057;48.498;32.260;2023-05-16T08:49:47;10.48;;;3.25;;
45318;SDS011;31057;48.498;32.260;2023-05-16T08:51:51;11.25;;;3.30;;
45318;SDS011;31057;48.498;32.260;2023-05-16T08:54:10;17.65;;;3.65;;
45318;SDS011;31057;48.498;32.260;2023-05-16T08:56:16;8.82;;;3.40;;
45318;SDS011;31057;48.498;32.260;2023-05-16T08:58:18;10.18;;;3.45;;
45318;SDS011;31057;48.498;32.260;2023-05-16T09:00:21;8.40;;;2.97;;
45318;SDS011;31057;48.498;32.260;2023-05-16T09:02:23;11.90;;;3.20;;
45318;SDS011;31057;48.498;32.260;2023-05-16T09:04:28;11.35;;;3.80;;
45318;SDS011;31057;48.498;32.260;2023-05-16T09:06:31;9.35;;;2.90;;
45318;SDS011;31057;48.498;32.260;2023-05-16T09:10:34;15.48;;;2.85;;
45318;SDS011;31057;48.498;32.260;2023-05-16T09:14:40;9.15;;;2.65;;
45318;SDS011;31057;48.498;32.260;2023-05-16T09:16:43;12.10;;;4.22;;
45318;SDS011;31057;48.498;32.260;2023-05-16T09:18:53;11.55;;;4.55;;
45318;SDS011;31057;48.498;32.260;2023-05-16T09:20:57;20.10;;;4.88;;
45318;SDS011;31057;48.498;32.260;2023-05-16T09:23:01;9.95;;;3.13;;
45318;SDS011;31057;48.498;32.260;2023-05-16T09:27:09;9.82;;;2.75;;
45318;SDS011;31057;48.498;32.260;2023-05-16T09:29:12;14.57;;;3.13;;
45318;SDS011;31057;48.498;32.260;2023-05-16T09:33:23;20.88;;;2.63;;
45318;SDS011;31057;48.498;32.260;2023-05-16T09:35:28;9.00;;;2.10;;
45318;SDS011;31057;48.498;32.260;2023-05-16T09:37:45;7.05;;;2.80;;
45318;SDS011;31057;48.498;32.260;2023-05-16T09:39:49;9.95;;;2.92;;
45318;SDS011;31057;48.498;32.260;2023-05-16T09:41:51;8.70;;;2.38;;
45318;SDS011;31057;48.498;32.260;2023-05-16T09:45:58;8.50;;;2.75;;
45318;SDS011;31057;48.498;32.260;2023-05-16T09:48:05;9.05;;;2.92;;
45318;SDS011;31057;48.498;32.260;2023-05-16T09:50:09;8.13;;;2.70;;
45318;SDS011;31057;48.498;32.260;2023-05-16T09:52:14;14.10;;;2.92;;
45318;SDS011;31057;48.498;32.260;2023-05-16T09:54:27;8.07;;;2.30;;
45318;SDS011;31057;48.498;32.260;2023-05-16T09:56:32;7.18;;;2.70;;
45318;SDS011;31057;48.498;32.260;2023-05-16T09:58:36;10.40;;;2.30;;
45318;SDS011;31057;48.498;32.260;2023-05-16T10:00:39;6.38;;;2.70;;
45318;SDS011;31057;48.498;32.260;2023-05-16T10:02:41;6.93;;;2.75;;
45318;SDS011;31057;48.498;32.260;2023-05-16T10:04:44;8.18;;;3.55;;
45318;SDS011;31057;48.498;32.260;2023-05-16T10:06:46;9.88;;;2.97;;
45318;SDS011;31057;48.498;32.260;2023-05-16T10:08:51;6.00;;;3.35;;
45318;SDS011;31057;48.498;32.260;2023-05-16T10:12:57;10.82;;;2.50;;
45318;SDS011;31057;48.498;32.260;2023-05-16T10:15:03;9.00;;;3.47;;
45318;SDS011;31057;48.498;32.260;2023-05-16T10:17:06;6.53;;;2.78;;
45318;SDS011;31057;48.498;32.260;2023-05-16T10:19:12;6.57;;;2.53;;
45318;SDS011;31057;48.498;32.260;2023-05-16T10:21:16;5.70;;;2.45;;
45318;SDS011;31057;48.498;32.260;2023-05-16T10:23:23;17.05;;;4.70;;
45318;SDS011;31057;48.498;32.260;2023-05-16T10:25:33;16.67;;;4.63;;
45318;SDS011;31057;48.498;32.260;2023-05-16T10:27:41;6.60;;;4.38;;
45318;SDS011;31057;48.498;32.260;2023-05-16T10:29:44;17.10;;;4.88;;
45318;SDS011;31057;48.498;32.260;2023-05-16T10:31:54;13.63;;;4.20;;
45318;SDS011;31057;48.498;32.260;2023-05-16T10:33:57;12.07;;;3.90;;
45318;SDS011;31057;48.498;32.260;2023-05-16T10:35:59;4.25;;;3.33;;
45318;SDS011;31057;48.498;32.260;2023-05-16T10:38:02;12.82;;;4.10;;
45318;SDS011;31057;48.498;32.260;2023-05-16T10:40:08;9.90;;;3.60;;
45318;SDS011;31057;48.498;32.260;2023-05-16T10:42:11;7.55;;;3.92;;
45318;SDS011;31057;48.498;32.260;2023-05-16T10:44:18;11.20;;;2.75;;
45318;SDS011;31057;48.498;32.260;2023-05-16T10:46:21;10.30;;;4.10;;
45318;SDS011;31057;48.498;32.260;2023-05-16T10:48:28;7.53;;;4.25;;
45318;SDS011;31057;48.498;32.260;2023-05-16T10:50:37;8.15;;;2.92;;
45318;SDS011;31057;48.498;32.260;2023-05-16T10:52:39;10.27;;;3.15;;
45318;SDS011;31057;48.498;32.260;2023-05-16T10:54:42;6.03;;;2.65;;
45318;SDS011;31057;48.498;32.260;2023-05-16T10:56:54;11.00;;;3.30;;
45318;SDS011;31057;48.498;32.260;2023-05-16T10:58:57;17.98;;;4.47;;
45318;SDS011;31057;48.498;32.260;2023-05-16T11:03:33;7.47;;;3.28;;
45318;SDS011;31057;48.498;32.260;2023-05-16T11:05:36;6.15;;;3.90;;
45318;SDS011;31057;48.498;32.260;2023-05-16T11:07:38;7.00;;;4.05;;
45318;SDS011;31057;48.498;32.260;2023-05-16T11:09:42;7.03;;;3.80;;
45318;SDS011;31057;48.498;32.260;2023-05-16T11:13:54;11.55;;;4.55;;
45318;SDS011;31057;48.498;32.260;2023-05-16T11:16:25;14.13;;;3.80;;
45318;SDS011;31057;48.498;32.260;2023-05-16T11:18:30;16.77;;;4.18;;
45318;SDS011;31057;48.498;32.260;2023-05-16T11:20:34;13.75;;;3.38;;
45318;SDS011;31057;48.498;32.260;2023-05-16T11:22:37;8.52;;;3.58;;
45318;SDS011;31057;48.498;32.260;2023-05-16T11:25:15;14.68;;;4.32;;
45318;SDS011;31057;48.498;32.260;2023-05-16T11:27:10;8.32;;;4.03;;
45318;SDS011;31057;48.498;32.260;2023-05-16T11:29:19;6.10;;;2.83;;
45318;SDS011;31057;48.498;32.260;2023-05-16T11:31:22;8.60;;;2.92;;
45318;SDS011;31057;48.498;32.260;2023-05-16T11:33:24;4.95;;;2.58;;
45318;SDS011;31057;48.498;32.260;2023-05-16T11:35:28;5.78;;;2.50;;
45318;SDS011;31057;48.498;32.260;2023-05-16T11:37:31;8.05;;;3.28;;
45318;SDS011;31057;48.498;32.260;2023-05-16T11:41:35;7.90;;;3.45;;
45318;SDS011;31057;48.498;32.260;2023-05-16T11:43:40;9.48;;;3.35;;
45318;SDS011;31057;48.498;32.260;2023-05-16T11:45:44;7.93;;;2.78;;
45318;SDS011;31057;48.498;32.260;2023-05-16T11:47:47;5.30;;;2.30;;
45318;SDS011;31057;48.498;32.260;2023-05-16T11:49:50;9.98;;;2.72;;
45318;SDS011;31057;48.498;32.260;2023-05-16T11:51:58;9.23;;;2.83;;
45318;SDS011;31057;48.498;32.260;2023-05-16T11:58:04;6.70;;;2.60;;
45318;SDS011;31057;48.498;32.260;2023-05-16T12:00:13;8.55;;;3.20;;
45318;SDS011;31057;48.498;32.260;2023-05-16T12:02:17;7.18;;;3.05;;
45318;SDS011;31057;48.498;32.260;2023-05-16T12:04:19;8.05;;;2.75;;
45318;SDS011;31057;48.498;32.260;2023-05-16T12:06:22;11.38;;;3.00;;
45318;SDS011;31057;48.498;32.260;2023-05-16T12:10:26;7.40;;;2.67;;
45318;SDS011;31057;48.498;32.260;2023-05-16T12:12:31;8.57;;;2.30;;
45318;SDS011;31057;48.498;32.260;2023-05-16T12:14:33;6.50;;;2.00;;
45318;SDS011;31057;48.498;32.260;2023-05-16T12:16:36;5.22;;;2.70;;
45318;SDS011;31057;48.498;32.260;2023-05-16T12:18:39;19.75;;;4.95;;
45318;SDS011;31057;48.498;32.260;2023-05-16T12:20:43;10.35;;;2.70;;
45318;SDS011;31057;48.498;32.260;2023-05-16T12:22:46;5.18;;;2.60;;
45318;SDS011;31057;48.498;32.260;2023-05-16T12:26:49;7.30;;;2.63;;
45318;SDS011;31057;48.498;32.260;2023-05-16T12:28:54;4.50;;;2.65;;
45318;SDS011;31057;48.498;32.260;2023-05-16T12:31:00;13.30;;;2.88;;
45318;SDS011;31057;48.498;32.260;2023-05-16T12:33:11;7.28;;;2.65;;
45318;SDS011;31057;48.498;32.260;2023-05-16T12:35:14;9.85;;;2.95;;
45318;SDS011;31057;48.498;32.260;2023-05-16T12:37:20;8.23;;;3.53;;
45318;SDS011;31057;48.498;32.260;2023-05-16T12:39:23;7.05;;;2.95;;
45318;SDS011;31057;48.498;32.260;2023-05-16T12:41:25;5.45;;;2.60;;
45318;SDS011;31057;48.498;32.260;2023-05-16T12:43:27;10.00;;;3.00;;
45318;SDS011;31057;48.498;32.260;2023-05-16T12:45:30;6.63;;;2.75;;
45318;SDS011;31057;48.498;32.260;2023-05-16T12:47:36;10.65;;;3.10;;
45318;SDS011;31057;48.498;32.260;2023-05-16T12:49:45;11.65;;;2.60;;
45318;SDS011;31057;48.498;32.260;2023-05-16T12:51:49;10.20;;;3.38;;
45318;SDS011;31057;48.498;32.260;2023-05-16T12:53:52;7.82;;;3.45;;
45318;SDS011;31057;48.498;32.260;2023-05-16T12:56:09;9.40;;;3.05;;
45318;SDS011;31057;48.498;32.260;2023-05-16T12:58:12;14.75;;;2.90;;
45318;SDS011;31057;48.498;32.260;2023-05-16T13:00:15;6.90;;;3.00;;
45318;SDS011;31057;48.498;32.260;2023-05-16T13:02:20;11.77;;;3.83;;
45318;SDS011;31057;48.498;32.260;2023-05-16T13:04:22;7.22;;;3.13;;
45318;SDS011;31057;48.498;32.260;2023-05-16T13:06:25;16.10;;;3.42;;
45318;SDS011;31057;48.498;32.260;2023-05-16T13:08:27;13.00;;;3.35;;
45318;SDS011;31057;48.498;32.260;2023-05-16T13:10:30;8.65;;;3.10;;
45318;SDS011;31057;48.498;32.260;2023-05-16T13:14:34;33.75;;;4.60;;
45318;SDS011;31057;48.498;32.260;2023-05-16T13:16:38;13.52;;;3.60;;
45318;SDS011;31057;48.498;32.260;2023-05-16T13:18:40;10.05;;;3.58;;
45318;SDS011;31057;48.498;32.260;2023-05-16T13:20:42;15.27;;;3.55;;
45318;SDS011;31057;48.498;32.260;2023-05-16T13:22:44;15.75;;;3.40;;
45318;SDS011;31057;48.498;32.260;2023-05-16T13:26:48;14.85;;;3.63;;
45318;SDS011;31057;48.498;32.260;2023-05-16T13:28:51;9.85;;;3.22;;
45318;SDS011;31057;48.498;32.260;2023-05-16T13:30:55;8.73;;;3.88;;
45318;SDS011;31057;48.498;32.260;2023-05-16T13:33:00;13.80;;;3.75;;
45318;SDS011;31057;48.498;32.260;2023-05-16T13:35:03;11.88;;;4.45;;
45318;SDS011;31057;48.498;32.260;2023-05-16T13:37:06;11.68;;;4.03;;
45318;SDS011;31057;48.498;32.260;2023-05-16T13:41:10;15.40;;;4.03;;
45318;SDS011;31057;48.498;32.260;2023-05-16T13:43:12;10.52;;;4.35;;
45318;SDS011;31057;48.498;32.260;2023-05-16T13:45:15;11.27;;;4.55;;
45318;SDS011;31057;48.498;32.260;2023-05-16T13:49:21;12.45;;;4.00;;
45318;SDS011;31057;48.498;32.260;2023-05-16T13:51:23;12.30;;;4.50;;
45318;SDS011;31057;48.498;32.260;2023-05-16T13:53:26;6.07;;;3.70;;
45318;SDS011;31057;48.498;32.260;2023-05-16T13:55:28;7.75;;;3.50;;
45318;SDS011;31057;48.498;32.260;2023-05-16T13:57:30;13.27;;;3.75;;
45318;SDS011;31057;48.498;32.260;2023-05-16T13:59:33;9.35;;;3.75;;
45318;SDS011;31057;48.498;32.260;2023-05-16T14:01:55;10.95;;;3.90;;
45318;SDS011;31057;48.498;32.260;2023-05-16T14:03:57;11.13;;;3.53;;
45318;SDS011;31057;48.498;32.260;2023-05-16T14:05:59;10.63;;;4.45;;
45318;SDS011;31057;48.498;32.260;2023-05-16T14:10:03;10.45;;;4.45;;
45318;SDS011;31057;48.498;32.260;2023-05-16T14:12:07;8.60;;;3.88;;
45318;SDS011;31057;48.498;32.260;2023-05-16T14:14:09;8.93;;;3.60;;
45318;SDS011;31057;48.498;32.260;2023-05-16T14:16:11;21.08;;;5.18;;
45318;SDS011;31057;48.498;32.260;2023-05-16T14:18:13;14.90;;;3.88;;
45318;SDS011;31057;48.498;32.260;2023-05-16T14:22:17;18.92;;;4.50;;
45318;SDS011;31057;48.498;32.260;2023-05-16T14:24:19;11.15;;;4.28;;